createdAt,value
2022-08-23T00:02:23.699Z,12.10
2022-08-23T00:07:28.222Z,13.15
2022-08-23T00:12:32.450Z,13.02
2022-08-23T00:17:35.374Z,13.15
2022-08-23T00:22:40.153Z,13.98
2022-08-23T00:27:43.204Z,13.23
2022-08-23T00:32:46.330Z,13.88
2022-08-23T00:38:05.926Z,13.95
2022-08-23T00:43:32.902Z,14.77
2022-08-23T00:48:38.024Z,14.18
2022-08-23T00:53:45.046Z,14.55
2022-08-23T00:58:47.762Z,14.80
2022-08-23T01:04:04.715Z,14.32
2022-08-23T01:09:12.352Z,14.90
2022-08-23T01:14:38.706Z,14.40
2022-08-23T01:19:48.732Z,14.80
2022-08-23T01:25:08.526Z,14.55
2022-08-23T01:30:20.552Z,15.45
2022-08-23T01:35:36.904Z,15.68
2022-08-23T01:40:40.962Z,14.90
2022-08-23T01:45:43.841Z,14.40
2022-08-23T01:50:48.326Z,14.25
2022-08-23T01:55:51.608Z,14.27
2022-08-23T02:00:56.204Z,13.82
2022-08-23T02:05:59.480Z,12.60
2022-08-23T02:11:10.876Z,14.38
2022-08-23T02:16:27.774Z,14.15
2022-08-23T02:21:32.249Z,12.88
2022-08-23T02:26:36.585Z,14.40
2022-08-23T02:31:39.711Z,14.35
2022-08-23T02:36:44.250Z,12.88
2022-08-23T02:41:48.029Z,13.27
2022-08-23T02:46:51.241Z,12.82
2022-08-23T02:51:54.258Z,12.70
2022-08-23T02:56:57.458Z,13.25
2022-08-23T03:02:00.178Z,12.25
2022-08-23T03:07:08.420Z,12.55
2022-08-23T03:12:12.472Z,12.90
2022-08-23T03:17:20.497Z,11.75
2022-08-23T03:22:24.277Z,12.30
2022-08-23T03:27:28.656Z,12.30
2022-08-23T03:32:31.692Z,12.13
2022-08-23T03:37:34.805Z,12.05
2022-08-23T03:42:44.005Z,12.60
2022-08-23T03:47:49.058Z,12.88
2022-08-23T03:52:52.681Z,12.18
2022-08-23T03:57:56.157Z,12.82
2022-08-23T04:02:59.242Z,13.05
2022-08-23T04:08:11.154Z,13.52
2022-08-23T04:13:16.825Z,14.75
2022-08-23T04:18:19.651Z,14.45
2022-08-23T04:23:22.725Z,14.18
2022-08-23T04:28:29.101Z,15.73
2022-08-23T04:33:33.161Z,14.40
2022-08-23T04:38:36.183Z,15.55
2022-08-23T04:43:44.084Z,13.52
2022-08-23T04:48:49.200Z,11.77
2022-08-23T04:53:54.017Z,12.50
2022-08-23T04:59:16.658Z,11.25
2022-08-23T05:04:21.432Z,11.95
2022-08-23T05:09:25.280Z,9.75
2022-08-23T05:14:28.763Z,10.20
2022-08-23T05:19:31.744Z,9.55
2022-08-23T05:24:34.673Z,9.75
2022-08-23T05:29:37.450Z,9.50
2022-08-23T05:34:40.274Z,9.65
2022-08-23T05:39:46.180Z,9.15
2022-08-23T05:44:48.940Z,9.02
2022-08-23T05:49:56.984Z,9.30
2022-08-23T05:55:02.833Z,9.20
2022-08-23T06:00:17.312Z,8.60
2022-08-23T06:05:22.856Z,7.82
2022-08-23T06:10:26.711Z,8.60
2022-08-23T06:15:35.998Z,8.32
2022-08-23T06:20:38.960Z,7.60
2022-08-23T06:25:43.976Z,9.18
2022-08-23T06:30:50.069Z,8.57
2022-08-23T06:36:13.894Z,9.50
2022-08-23T06:41:42.506Z,9.25
2022-08-23T06:47:03.622Z,8.10
2022-08-23T06:52:06.883Z,8.68
2022-08-23T06:57:25.825Z,7.97
2022-08-23T07:02:54.950Z,7.90
2022-08-23T07:08:16.308Z,8.55
2022-08-23T07:13:20.078Z,9.98
2022-08-23T07:18:22.754Z,8.50
2022-08-23T07:23:27.257Z,7.90
2022-08-23T07:28:30.720Z,8.77
2022-08-23T07:33:33.729Z,8.65
2022-08-23T07:38:47.609Z,8.05
2022-08-23T07:43:51.160Z,8.45
2022-08-23T07:48:56.062Z,9.13
2022-08-23T07:54:07.137Z,8.27
2022-08-23T07:59:13.051Z,9.57
2022-08-23T08:04:44.130Z,8.25
2022-08-23T08:09:49.002Z,9.68
2022-08-23T08:14:53.597Z,8.45
2022-08-23T08:20:00.592Z,8.45
2022-08-23T08:25:38.619Z,8.30
2022-08-23T08:30:44.077Z,8.80
2022-08-23T08:35:57.868Z,8.27
2022-08-23T08:41:11.008Z,8.35
2022-08-23T08:46:25.993Z,7.60
2022-08-23T08:51:47.871Z,6.97
2022-08-23T08:56:56.006Z,7.15
2022-08-23T09:02:00.558Z,6.47
2022-08-23T09:07:31.115Z,6.90
2022-08-23T09:12:49.576Z,6.88
2022-08-23T09:17:54.900Z,6.43
2022-08-23T09:23:17.936Z,7.75
2022-08-23T09:28:22.263Z,6.57
2022-08-23T09:33:44.217Z,7.40
2022-08-23T09:39:07.153Z,6.30
2022-08-23T09:44:13.939Z,6.22
2022-08-23T09:49:26.333Z,6.17
2022-08-23T09:54:35.295Z,6.38
2022-08-23T09:59:44.917Z,6.65
2022-08-23T10:05:03.930Z,6.88
2022-08-23T10:10:33.308Z,6.93
2022-08-23T10:16:09.923Z,5.25
2022-08-23T10:21:47.386Z,5.63
2022-08-23T10:33:23.337Z,5.63
2022-08-23T10:38:45.278Z,5.43
2022-08-23T10:44:07.168Z,8.07
2022-08-23T10:49:13.131Z,5.82
2022-08-23T10:54:36.032Z,5.80
2022-08-23T10:59:47.324Z,5.88
2022-08-23T11:05:03.785Z,5.75
2022-08-23T11:10:31.769Z,5.73
2022-08-23T11:15:45.003Z,5.68
2022-08-23T11:20:49.286Z,5.43
2022-08-23T11:25:56.408Z,5.05
2022-08-23T11:31:09.234Z,5.38
2022-08-23T11:36:12.522Z,5.93
2022-08-23T11:41:24.943Z,5.15
2022-08-23T11:46:28.233Z,5.30
2022-08-23T11:51:50.745Z,5.55
2022-08-23T11:57:20.177Z,5.60
2022-08-23T12:02:32.293Z,5.10
2022-08-23T12:07:47.438Z,4.43
2022-08-23T12:13:33.176Z,4.10
2022-08-23T12:18:42.518Z,3.83
2022-08-23T12:23:57.548Z,4.13
2022-08-23T12:29:18.982Z,4.38
2022-08-23T12:34:42.148Z,4.78
2022-08-23T12:39:55.326Z,5.10
2022-08-23T12:45:20.838Z,4.97
2022-08-23T12:50:33.484Z,5.25
2022-08-23T12:55:50.131Z,5.50
2022-08-23T13:00:59.396Z,5.40
2022-08-23T13:06:07.273Z,4.87
2022-08-23T13:11:18.261Z,5.07
2022-08-23T13:16:36.239Z,5.18
2022-08-23T13:21:39.750Z,5.45
2022-08-23T13:26:44.193Z,5.10
2022-08-23T13:32:04.131Z,5.43
2022-08-23T13:37:23.654Z,6.10
2022-08-23T13:42:32.816Z,5.22
2022-08-23T13:47:36.435Z,5.70
2022-08-23T13:53:03.101Z,5.30
2022-08-23T13:58:11.478Z,5.43
2022-08-23T14:08:16.651Z,5.00
2022-08-23T14:13:29.934Z,5.25
2022-08-23T14:18:33.403Z,4.80
2022-08-23T14:23:36.115Z,5.65
2022-08-23T14:28:43.873Z,4.63
2022-08-23T14:33:48.332Z,5.13
2022-08-23T14:38:51.006Z,4.82
2022-08-23T14:43:54.156Z,5.60
2022-08-23T14:48:57.085Z,4.88
2022-08-23T14:54:03.985Z,5.10
2022-08-23T14:59:07.012Z,4.85
2022-08-23T15:04:10.276Z,4.78
2022-08-23T15:09:12.938Z,5.30
2022-08-23T15:14:15.821Z,5.45
2022-08-23T15:19:18.536Z,5.88
2022-08-23T15:24:21.390Z,5.07
2022-08-23T15:29:24.219Z,5.43
2022-08-23T15:34:26.992Z,5.40
2022-08-23T15:39:29.825Z,5.95
2022-08-23T15:44:32.594Z,5.03
2022-08-23T15:49:36.614Z,5.93
2022-08-23T15:54:39.703Z,7.05
2022-08-23T15:59:43.160Z,5.68
2022-08-23T16:04:46.071Z,5.97
2022-08-23T16:09:49.048Z,6.80
2022-08-23T16:14:52.292Z,6.50
2022-08-23T16:19:54.997Z,6.85
2022-08-23T16:24:57.942Z,6.43
2022-08-23T16:30:00.651Z,6.53
2022-08-23T16:35:04.298Z,6.38
2022-08-23T16:40:08.738Z,6.18
2022-08-23T16:45:12.286Z,6.13
2022-08-23T16:50:15.360Z,6.40
2022-08-23T16:55:18.097Z,7.32
2022-08-23T17:00:21.633Z,6.57
2022-08-23T17:05:24.899Z,7.47
2022-08-23T17:10:28.324Z,7.53
2022-08-23T17:15:34.491Z,7.38
2022-08-23T17:20:39.451Z,11.20
2022-08-23T17:25:44.567Z,12.85
2022-08-23T17:30:47.828Z,17.00
2022-08-23T17:35:50.558Z,18.50
2022-08-23T17:40:53.465Z,21.58
2022-08-23T17:45:56.220Z,24.15
2022-08-23T17:51:01.612Z,23.85
2022-08-23T17:56:05.837Z,22.15
2022-08-23T18:01:12.844Z,20.17
2022-08-23T18:06:17.547Z,18.60
2022-08-23T18:11:20.848Z,18.00
2022-08-23T18:16:26.295Z,19.13
2022-08-23T18:21:30.831Z,16.90
2022-08-23T18:26:53.973Z,16.45
2022-08-23T18:31:56.944Z,16.30
2022-08-23T18:37:00.799Z,15.48
2022-08-23T18:42:05.588Z,15.43
2022-08-23T18:47:08.577Z,15.25
2022-08-23T18:52:11.203Z,15.27
2022-08-23T18:57:16.199Z,13.60
2022-08-23T19:02:19.791Z,13.65
2022-08-23T19:07:22.552Z,13.77
2022-08-23T19:12:26.253Z,13.25
2022-08-23T19:17:29.075Z,14.43
2022-08-23T19:22:31.775Z,14.65
2022-08-23T19:27:35.095Z,14.20
2022-08-23T19:32:39.725Z,13.30
2022-08-23T19:37:43.900Z,12.60
2022-08-23T19:42:50.095Z,12.10
2022-08-23T19:47:54.028Z,13.38
2022-08-23T19:52:57.322Z,12.48
2022-08-23T19:58:01.185Z,10.85
2022-08-23T20:03:04.184Z,10.52
2022-08-23T20:08:07.581Z,10.90
2022-08-23T20:13:10.238Z,10.73
2022-08-23T20:18:13.016Z,9.90
2022-08-23T20:23:34.377Z,10.02
2022-08-23T20:33:42.289Z,9.68
2022-08-23T20:38:48.910Z,9.35
2022-08-23T20:43:51.559Z,8.60
2022-08-23T20:48:57.550Z,8.68
2022-08-23T20:54:01.336Z,8.30
2022-08-23T20:59:08.180Z,8.77
2022-08-23T21:04:12.784Z,8.23
2022-08-23T21:09:20.539Z,8.05
2022-08-23T21:14:25.493Z,8.50
2022-08-23T21:19:30.145Z,8.40
2022-08-23T21:24:33.079Z,8.05
2022-08-23T21:29:59.350Z,7.03
2022-08-23T21:35:35.799Z,7.35
2022-08-23T21:40:40.225Z,7.13
2022-08-23T21:45:43.295Z,7.10
2022-08-23T21:50:46.613Z,7.35
2022-08-23T21:55:49.606Z,6.70
2022-08-23T22:00:52.679Z,7.20
2022-08-23T22:05:55.691Z,6.55
2022-08-23T22:10:59.567Z,7.45
2022-08-23T22:16:02.638Z,7.20
2022-08-23T22:21:05.769Z,7.18
2022-08-23T22:26:08.460Z,7.22
2022-08-23T22:31:13.904Z,7.03
2022-08-23T22:36:21.967Z,7.22
2022-08-23T22:41:28.418Z,7.20
2022-08-23T22:46:34.194Z,7.18
2022-08-23T22:51:37.617Z,7.57
2022-08-23T22:56:49.403Z,7.13
2022-08-23T23:01:54.766Z,7.30
2022-08-23T23:06:59.529Z,7.60
2022-08-23T23:12:02.531Z,7.63
2022-08-23T23:17:05.340Z,7.72
2022-08-23T23:22:08.950Z,6.82
2022-08-23T23:27:11.971Z,7.70
2022-08-23T23:32:15.859Z,8.20
2022-08-23T23:37:18.578Z,7.75
2022-08-23T23:42:21.237Z,7.72
2022-08-23T23:47:24.874Z,7.05
2022-08-23T23:52:27.720Z,7.68
2022-08-23T23:57:31.123Z,7.57
